Nearby METAR Reports

 

KSJC - San Jose, California, USA
Distance from station: NE 14km
Updated: 01/04/2020 09:53
Partly cloudy
Partly cloudy
 Wind from NW
Wind: NW 17 km/h
Temperature: 13°C
Dew Point: 6°C
Humidity: 63%
Barometer: 1016.9 hPa
Clouds: Partly cloudy
Visibility: 16 km
Cloud details: Partly cloudy 853 m
2020/04/01 16:53 KSJC 011653Z 32009KT 10SM SCT028 13/06 A3003 RMK AO2 SLP168 T01280056
KNUQ - Moffett Nas/Mtn, California, USA
Distance from station: N 14km
Updated: 21/11/2019 08:56
NOT Current

 
Barometer: 1011.2 hPa
2019/11/21 16:56 KNUQ 211656Z AUTO A2986 RMK AO2 SLP116 PWINO $
 
KPAO - Palo Alto, California, USA
Distance from station: NNW 23km
Updated: 01/04/2020 08:47
NOT Current
Partly cloudy
Partly cloudy
 Wind from W
Wind: W 24 km/h, Gust: 35 km/h
Temperature: 11°C
Dew Point: 4°C
Humidity: 62%
Barometer: 1016.9 hPa
Clouds: Partly cloudy
Visibility: 16 km
Cloud details: Partly cloudy 762 m
2020/04/01 15:47 KPAO 011547Z 27013G19KT 10SM SCT025 11/04 A3003
KRHV - San Jose/Reid, California, USA
Distance from station: ENE 19km
Updated: 01/04/2020 09:47
Partly cloudy
Partly cloudy
 Wind from WNW
Wind: WNW 9 km/h
Temperature: 11°C
Dew Point: 5°C
Humidity: 67%
Barometer: 1017.3 hPa
Clouds: Partly cloudy
Visibility: 16 km
Cloud details: Partly cloudy 1067 m
2020/04/01 16:47 KRHV 011647Z 29005KT 10SM SCT035 11/05 A3004
 
KOAK - Oakland, California, USA
Distance from station: NNW 50km
Updated: 01/04/2020 09:53
Few Clouds
Few Clouds
 Wind from NW
Wind: NW 15 km/h
Temperature: 14°C
Dew Point: 3°C
Humidity: 48%
Barometer: 1016.9 hPa
Clouds: Few Clouds
Visibility: 16 km
Cloud details: Few Clouds 457 m
2020/04/01 16:53 KOAK 011653Z 31008KT 10SM FEW015 14/03 A3003 RMK AO2 SLP169 T01390028
KSQL - San Carlos Airpo, California, USA
Distance from station: NW 34km
Updated: 01/04/2020 09:47
Few Clouds
Few Clouds
 Wind from W
Wind: W 19 km/h
Temperature: 12°C
Dew Point: 3°C
Humidity: 54%
Barometer: 1017.3 hPa
Clouds: Few Clouds
Visibility: 16 km
Cloud details: Few Clouds 762 m
2020/04/01 16:47 KSQL 011647Z 28010KT 10SM FEW025 12/03 A3004
 
KSFO - San Francisco, California, USA
Distance from station: NW 49km
Updated: 01/04/2020 09:56
Few Clouds
Few Clouds
 Wind from WNW
Wind: WNW 19 km/h
Temperature: 13°C
Dew Point: 3°C
Humidity: 51%
Barometer: 1016.9 hPa
Clouds: Few Clouds
Visibility: 16 km
Cloud details: Few Clouds 914 m
2020/04/01 16:56 KSFO 011656Z 29010KT 10SM FEW030 13/03 A3003 RMK AO2 SLP168 T01280028
KE16 - San Martin, California, USA
Distance from station: ESE 43km
Updated: 14/11/2019 01:35
NOT Current
Overcast
Overcast
 Wind from SE
Wind: SE 11 km/h
Temperature: 12°C
Dew Point: 10°C
Humidity: 88%
Barometer: 1017.6 hPa
Clouds: Overcast
Visibility: 16 km
Cloud details: Overcast 427 m
2019/11/14 09:35 KE16 140935Z AUTO 13006KT 10SM OVC014 12/10 A3005 RMK AO2
 
KWVI - Watsonville, California, USA
Distance from station: SSE 44km
Updated: 01/04/2020 09:53
Mostly cloudy
Mostly cloudy
 Wind from SSE
Wind: SSE 6 km/h
Temperature: 13°C
Dew Point: 8°C
Humidity: 72%
Barometer: 1016.6 hPa
Clouds: Mostly cloudy
Visibility: 16 km
Cloud details: Mostly cloudy 671 m
Mostly cloudy 823 m
2020/04/01 16:53 KWVI 011653Z AUTO 16003KT 10SM BKN022 BKN027 13/08 A3002 RMK AO2 SLP166 T01330083
KHAF - Half Moon Bay, California, USA
Distance from station: WNW 50km
Updated: 01/04/2020 10:00
Clear
Clear
 Wind from NNW
Wind: NNW 31 km/h, Gust: 46 km/h
Temperature: 12°C
Dew Point: 5°C
Humidity: 63%
Barometer: 1017.3 hPa
Clouds: Clear
Visibility: 16 km
2020/04/01 17:00 KHAF 011700Z AUTO 33017G25KT 10SM CLR 12/05 A3004 RMK AO2
 
KHWD - Hayward, California, USA
Distance from station: N 44km
Updated: 01/04/2020 09:54
Clear
Clear
 Wind from varies
Wind: varies 7 km/h
Temperature: 12°C
Dew Point: 4°C
Humidity: 58%
Barometer: 1016.6 hPa
Clouds: Clear
Visibility: 16 km
2020/04/01 16:54 KHWD 011654Z VRB04KT 10SM CLR 12/04 A3002 RMK AO2 SLP177 T01220044
KLVK - Livermore, California, USA
Distance from station: NNE 51km
Updated: 01/04/2020 09:53
Few Clouds
Few Clouds
 Wind from WSW
Wind: WSW 9 km/h
Temperature: 11°C
Dew Point: 4°C
Humidity: 62%
Barometer: 1016.3 hPa
Clouds: Few Clouds
Visibility: 16 km
Cloud details: Few Clouds 914 m
2020/04/01 16:53 KLVK 011653Z 25005KT 10SM FEW030 11/04 A3001 RMK AO2 SLP161 T01110039